createdAt,value
2018-04-12T00:00:04.330Z,91.80
2018-04-12T00:02:31.777Z,91.90
2018-04-12T00:04:59.380Z,92.00
2018-04-12T00:07:26.823Z,92.10
2018-04-12T00:09:54.268Z,92.10
2018-04-12T00:12:21.703Z,92.20
2018-04-12T00:14:49.154Z,92.30
2018-04-12T00:17:16.611Z,92.30
2018-04-12T00:19:44.056Z,92.30
2018-04-12T00:22:11.554Z,92.40
2018-04-12T00:24:39.002Z,92.40
2018-04-12T00:27:06.469Z,92.50
2018-04-12T00:29:33.911Z,92.50
2018-04-12T00:32:01.361Z,92.60
2018-04-12T00:34:28.815Z,92.70
2018-04-12T00:36:57.096Z,92.60
2018-04-12T00:39:24.544Z,92.70
2018-04-12T00:41:51.990Z,92.60
2018-04-12T00:44:19.444Z,92.70
2018-04-12T00:46:46.911Z,92.80
2018-04-12T00:49:14.354Z,92.80
2018-04-12T00:51:41.814Z,92.90
2018-04-12T00:54:10.020Z,92.90
2018-04-12T00:56:37.468Z,92.90
2018-04-12T00:59:04.920Z,92.90
2018-04-12T01:01:32.422Z,93.00
2018-04-12T01:03:59.860Z,93.00
2018-04-12T01:06:27.354Z,93.00
2018-04-12T01:08:54.787Z,92.90
2018-04-12T01:11:22.256Z,93.00
2018-04-12T01:13:49.714Z,92.90
2018-04-12T01:16:17.147Z,92.90
2018-04-12T01:18:46.408Z,92.90
2018-04-12T01:21:13.861Z,92.90
2018-04-12T01:23:41.330Z,92.80
2018-04-12T01:26:08.772Z,92.90
2018-04-12T01:28:36.278Z,92.90
2018-04-12T01:31:03.689Z,92.80
2018-04-12T01:33:31.149Z,92.80
2018-04-12T01:35:58.617Z,92.70
2018-04-12T01:38:26.060Z,92.70
2018-04-12T01:40:53.505Z,92.70
2018-04-12T01:43:20.947Z,92.60
2018-04-12T01:45:48.391Z,92.60
2018-04-12T01:48:15.848Z,92.60
2018-04-12T01:50:43.599Z,92.60
2018-04-12T01:53:11.044Z,92.50
2018-04-12T01:55:38.492Z,92.60
2018-04-12T01:58:05.928Z,92.50
2018-04-12T02:00:34.150Z,92.50
2018-04-12T02:03:01.590Z,92.50
2018-04-12T02:05:29.035Z,92.50
2018-04-12T02:07:56.496Z,92.40
2018-04-12T02:10:23.939Z,92.50
2018-04-12T02:12:51.415Z,92.40
2018-04-12T02:15:18.851Z,92.50
2018-04-12T02:17:46.287Z,92.40
2018-04-12T02:20:13.735Z,92.40
2018-04-12T02:22:41.197Z,92.30
2018-04-12T02:25:08.661Z,92.30
2018-04-12T02:27:36.120Z,92.30
2018-04-12T02:30:03.559Z,92.40
2018-04-12T02:32:31.020Z,92.40
2018-04-12T02:34:58.461Z,92.40
2018-04-12T02:37:25.908Z,92.40
2018-04-12T02:39:53.440Z,92.40
2018-04-12T02:42:20.872Z,92.40
2018-04-12T02:44:48.326Z,92.40
2018-04-12T02:47:15.812Z,92.40
2018-04-12T02:49:43.215Z,92.50
2018-04-12T02:52:10.681Z,92.50
2018-04-12T02:54:38.895Z,92.50
2018-04-12T02:57:06.365Z,92.50
2018-04-12T02:59:33.810Z,92.60
2018-04-12T03:02:01.260Z,92.50
2018-04-12T03:04:28.725Z,92.50
2018-04-12T03:06:56.172Z,92.50
2018-04-12T03:09:24.408Z,92.60
2018-04-12T03:11:52.171Z,92.60
2018-04-12T03:14:19.619Z,92.60
2018-04-12T03:16:47.080Z,92.60
2018-04-12T03:19:14.523Z,92.60
2018-04-12T03:21:41.990Z,92.60
2018-04-12T03:24:09.427Z,92.70
2018-04-12T03:26:36.881Z,92.70
2018-04-12T03:29:04.512Z,92.80
2018-04-12T03:31:32.013Z,92.80
2018-04-12T03:33:59.459Z,92.80
2018-04-12T03:36:27.004Z,92.80
2018-04-12T03:38:54.460Z,92.80
2018-04-12T03:41:21.937Z,92.70
2018-04-12T03:43:56.533Z,92.70
2018-04-12T03:46:23.987Z,92.70
2018-04-12T03:48:51.473Z,92.60
2018-04-12T03:51:18.947Z,92.60
2018-04-12T03:53:46.430Z,92.60
2018-04-12T03:56:13.875Z,92.60
2018-04-12T03:58:41.341Z,92.70
2018-04-12T04:01:08.803Z,92.80
2018-04-12T04:03:37.288Z,93.10
2018-04-12T04:06:04.724Z,92.70
2018-04-12T04:08:32.185Z,92.90
2018-04-12T04:10:59.662Z,92.90
2018-04-12T04:13:27.103Z,93.10
2018-04-12T04:16:06.385Z,93.20
2018-04-12T04:18:48.161Z,93.30
2018-04-12T04:21:20.301Z,93.40
2018-04-12T04:23:47.740Z,93.30
2018-04-12T04:26:15.183Z,93.40
2018-04-12T04:28:42.653Z,93.40
2018-04-12T04:31:10.095Z,93.50
2018-04-12T04:33:38.127Z,93.60
2018-04-12T04:36:05.610Z,93.50
2018-04-12T04:38:33.047Z,93.60
2018-04-12T04:41:00.580Z,93.60
2018-04-12T04:43:28.382Z,93.70
2018-04-12T04:45:55.800Z,93.60
2018-04-12T04:48:23.520Z,93.60
2018-04-12T04:50:50.973Z,93.60
2018-04-12T04:53:18.412Z,93.60
2018-04-12T04:55:45.868Z,93.70
2018-04-12T04:58:13.331Z,93.60
2018-04-12T05:00:40.781Z,93.70
2018-04-12T05:03:08.243Z,93.70
2018-04-12T05:05:35.685Z,93.70
2018-04-12T05:08:03.129Z,93.60
2018-04-12T05:10:30.587Z,93.60
2018-04-12T05:12:58.019Z,93.50
2018-04-12T05:15:25.547Z,93.80
2018-04-12T05:17:52.944Z,93.40
2018-04-12T05:20:20.383Z,93.40
2018-04-12T05:22:47.839Z,93.30
2018-04-12T05:25:15.290Z,93.20
2018-04-12T05:27:42.764Z,93.20
2018-04-12T05:30:11.382Z,93.10
2018-04-12T05:32:38.816Z,93.10
2018-04-12T05:35:06.267Z,93.00
2018-04-12T05:37:33.716Z,93.00
2018-04-12T05:40:01.175Z,93.00
2018-04-12T05:42:28.649Z,92.90
2018-04-12T05:44:56.094Z,93.20
2018-04-12T05:47:23.557Z,92.80
2018-04-12T05:49:50.996Z,92.70
2018-04-12T05:52:19.220Z,92.70
2018-04-12T05:54:47.027Z,92.60
2018-04-12T05:57:14.456Z,92.70
2018-04-12T05:59:41.952Z,92.70
2018-04-12T06:02:09.414Z,92.70
2018-04-12T06:04:36.859Z,92.80
2018-04-12T06:07:04.610Z,92.80
2018-04-12T06:09:32.066Z,92.80
2018-04-12T06:11:59.512Z,92.90
2018-04-12T06:14:26.956Z,92.90
2018-04-12T06:16:54.597Z,92.90
2018-04-12T06:19:23.675Z,93.00
2018-04-12T06:21:51.143Z,93.00
2018-04-12T06:24:18.677Z,92.80
2018-04-12T06:26:46.636Z,92.60
2018-04-12T06:29:14.090Z,92.40
2018-04-12T06:31:41.580Z,92.30
2018-04-12T06:34:09.027Z,92.20
2018-04-12T06:36:36.495Z,92.00
2018-04-12T06:39:03.935Z,92.00
2018-04-12T06:41:31.459Z,91.80
2018-04-12T06:43:59.214Z,91.60
2018-04-12T06:46:26.671Z,91.50
2018-04-12T06:48:54.114Z,91.40
2018-04-12T06:51:21.567Z,91.30
2018-04-12T06:53:49.028Z,91.20
2018-04-12T06:56:16.480Z,91.20
2018-04-12T06:58:44.896Z,91.00
2018-04-12T07:01:12.380Z,91.00
2018-04-12T07:03:41.426Z,90.90
2018-04-12T07:06:08.855Z,90.80
2018-04-12T07:08:37.076Z,90.50
2018-04-12T07:11:04.522Z,90.50
2018-04-12T07:13:31.971Z,90.50
2018-04-12T07:15:59.416Z,90.40
2018-04-12T07:18:26.847Z,90.30
2018-04-12T07:20:54.422Z,89.80
2018-04-12T07:23:21.876Z,89.70
2018-04-12T07:25:49.319Z,89.40
2018-04-12T07:28:17.017Z,88.40
2018-04-12T07:30:45.423Z,87.60
2018-04-12T07:33:12.941Z,87.50
2018-04-12T07:35:40.482Z,87.10
2018-04-12T07:38:08.012Z,86.00
2018-04-12T07:40:35.530Z,84.90
2018-04-12T07:43:03.041Z,82.90
2018-04-12T07:45:30.556Z,82.80
2018-04-12T07:47:58.084Z,81.60
2018-04-12T07:50:25.603Z,82.00
2018-04-12T07:52:53.134Z,81.20
2018-04-12T07:55:20.647Z,80.20
2018-04-12T07:57:48.167Z,79.40
2018-04-12T08:00:15.649Z,79.10
2018-04-12T08:02:43.182Z,78.60
2018-04-12T08:05:10.712Z,78.20
2018-04-12T08:07:38.237Z,77.40
2018-04-12T08:10:05.756Z,77.60
2018-04-12T08:12:33.248Z,76.30
2018-04-12T08:15:00.777Z,75.10
2018-04-12T08:17:28.306Z,74.40
2018-04-12T08:19:55.822Z,74.10
2018-04-12T08:22:23.354Z,73.80
2018-04-12T08:24:50.878Z,72.00
2018-04-12T08:27:18.366Z,70.60
2018-04-12T08:29:45.902Z,68.30
2018-04-12T08:32:13.410Z,66.30
2018-04-12T08:34:40.933Z,64.50
2018-04-12T08:37:08.443Z,61.70
2018-04-12T08:39:36.129Z,59.50
2018-04-12T08:42:03.579Z,57.80
2018-04-12T08:44:31.167Z,56.60
2018-04-12T08:46:58.607Z,56.30
2018-04-12T08:49:26.049Z,55.90
2018-04-12T08:51:53.553Z,54.30
2018-04-12T08:54:21.008Z,53.40
2018-04-12T08:56:48.676Z,52.20
2018-04-12T08:59:16.216Z,51.40
2018-04-12T09:01:43.669Z,50.40
2018-04-12T09:04:11.114Z,50.70
2018-04-12T09:06:38.752Z,50.20
2018-04-12T09:09:06.191Z,48.50
2018-04-12T09:11:33.669Z,46.90
2018-04-12T09:14:01.176Z,46.30
2018-04-12T09:16:28.623Z,46.00
2018-04-12T09:18:56.079Z,46.30
2018-04-12T09:21:23.514Z,45.10
2018-04-12T09:23:50.991Z,44.80
2018-04-12T09:26:18.448Z,44.40
2018-04-12T09:28:45.893Z,42.00
2018-04-12T09:31:13.346Z,42.30
2018-04-12T09:33:43.327Z,44.00
2018-04-12T09:36:10.772Z,44.00
2018-04-12T09:38:38.206Z,44.50
2018-04-12T09:41:05.767Z,44.70
2018-04-12T09:43:33.224Z,46.10
2018-04-12T09:46:00.931Z,47.40
2018-04-12T09:48:28.417Z,48.40
2018-04-12T09:50:55.860Z,48.50
2018-04-12T09:53:23.300Z,48.50
2018-04-12T09:55:51.116Z,49.50
2018-04-12T09:58:18.547Z,50.20
2018-04-12T10:00:52.361Z,51.20
2018-04-12T10:03:19.787Z,51.10
2018-04-12T10:06:02.887Z,52.80
2018-04-12T10:08:30.636Z,51.90
2018-04-12T10:10:58.098Z,52.60
2018-04-12T10:13:25.544Z,53.30
2018-04-12T10:15:52.979Z,53.00
2018-04-12T10:18:20.795Z,52.80
2018-04-12T10:20:48.248Z,52.10
2018-04-12T10:23:15.697Z,52.50
2018-04-12T10:25:43.169Z,52.20
2018-04-12T10:28:10.724Z,52.30
2018-04-12T10:30:38.168Z,51.60
2018-04-12T10:33:05.607Z,52.10
2018-04-12T10:35:33.816Z,53.20
2018-04-12T10:38:01.251Z,52.40
2018-04-12T10:40:28.696Z,52.80
2018-04-12T10:42:56.141Z,53.60
2018-04-12T10:45:23.583Z,54.20
2018-04-12T10:47:52.811Z,53.90
2018-04-12T10:50:20.237Z,53.50
2018-04-12T10:52:47.732Z,54.10
2018-04-12T10:55:15.202Z,54.20
2018-04-12T10:57:42.637Z,54.60
2018-04-12T11:00:12.351Z,54.60
2018-04-12T11:02:39.783Z,55.00
2018-04-12T11:05:07.490Z,54.80
2018-04-12T11:07:34.935Z,55.10
2018-04-12T11:10:02.404Z,55.30
2018-04-12T11:12:29.836Z,55.10
2018-04-12T11:14:57.290Z,55.40
2018-04-12T11:17:24.756Z,55.30
2018-04-12T11:19:52.194Z,55.70
2018-04-12T11:22:19.628Z,56.40
2018-04-12T11:24:47.116Z,57.00
2018-04-12T11:27:14.520Z,56.40
2018-04-12T11:29:41.973Z,55.70
2018-04-12T11:32:09.434Z,55.30
2018-04-12T11:34:36.896Z,54.80
2018-04-12T11:37:04.329Z,55.20
2018-04-12T11:39:32.789Z,55.90
2018-04-12T11:42:00.305Z,55.80
2018-04-12T11:44:28.091Z,55.60
2018-04-12T11:46:55.568Z,54.90
2018-04-12T11:49:22.995Z,54.60
2018-04-12T11:51:50.457Z,53.70
2018-04-12T11:54:17.911Z,53.10
2018-04-12T11:56:45.374Z,53.10
2018-04-12T11:59:12.959Z,53.00
2018-04-12T12:01:40.449Z,53.10
2018-04-12T12:04:07.858Z,53.00
2018-04-12T12:06:35.301Z,53.40
2018-04-12T12:09:03.514Z,53.60
2018-04-12T12:11:31.032Z,53.60
2018-04-12T12:13:59.237Z,53.60
2018-04-12T12:16:26.846Z,53.90
2018-04-12T12:18:54.288Z,53.80
2018-04-12T12:21:21.741Z,53.10
2018-04-12T12:23:49.200Z,52.80
2018-04-12T12:26:16.662Z,52.70
2018-04-12T12:28:44.103Z,52.50
2018-04-12T12:31:11.753Z,52.40
2018-04-12T12:33:39.188Z,52.70
2018-04-12T12:36:06.631Z,53.30
2018-04-12T12:38:34.184Z,54.10
2018-04-12T12:41:01.961Z,54.40
2018-04-12T12:43:35.212Z,54.50
2018-04-12T12:46:03.416Z,54.20
2018-04-12T12:48:49.668Z,54.20
2018-04-12T12:51:17.130Z,53.80
2018-04-12T12:53:44.927Z,53.80
2018-04-12T12:56:12.360Z,54.10
2018-04-12T12:58:39.804Z,54.40
2018-04-12T13:01:07.264Z,53.60
2018-04-12T13:03:41.036Z,51.70
2018-04-12T13:06:08.453Z,51.20
2018-04-12T13:08:43.196Z,48.50
2018-04-12T13:11:16.657Z,48.50
2018-04-12T13:13:50.342Z,49.00
2018-04-12T13:16:17.800Z,48.50
2018-04-12T13:18:47.929Z,48.40
2018-04-12T13:21:15.457Z,47.40
2018-04-12T13:23:42.905Z,46.20
2018-04-12T13:26:11.825Z,46.40
2018-04-12T13:28:40.468Z,46.70
2018-04-12T13:31:07.930Z,46.60
2018-04-12T13:33:35.684Z,47.00
2018-04-12T13:36:08.923Z,47.80
2018-04-12T13:38:43.112Z,47.10
2018-04-12T13:41:16.339Z,47.00
2018-04-12T13:43:49.364Z,46.50
2018-04-12T13:46:16.806Z,46.20
2018-04-12T13:48:50.660Z,47.40
2018-04-12T13:51:18.101Z,47.30
2018-04-12T13:53:45.559Z,48.90
2018-04-12T13:56:24.631Z,49.70
2018-04-12T13:59:03.738Z,49.80
2018-04-12T14:01:36.957Z,49.70
2018-04-12T14:04:05.375Z,50.30
2018-04-12T14:06:36.703Z,50.10
2018-04-12T14:09:04.133Z,50.40
2018-04-12T14:11:37.466Z,50.40
2018-04-12T14:14:04.951Z,50.40
2018-04-12T14:16:32.409Z,51.00
2018-04-12T14:19:06.874Z,50.70
2018-04-12T14:21:35.114Z,51.90
2018-04-12T14:24:03.064Z,51.70
2018-04-12T14:26:30.549Z,51.90
2018-04-12T14:28:58.195Z,51.40
2018-04-12T14:31:25.742Z,51.40
2018-04-12T14:33:53.181Z,51.60
2018-04-12T14:36:20.702Z,51.40
2018-04-12T14:38:53.724Z,50.90
2018-04-12T14:41:21.439Z,50.70
2018-04-12T14:43:49.451Z,49.90
2018-04-12T14:46:16.879Z,49.30
2018-04-12T14:48:46.587Z,49.20
2018-04-12T14:51:14.061Z,48.60
2018-04-12T14:53:41.504Z,48.20
2018-04-12T14:56:09.491Z,48.40
2018-04-12T14:58:42.803Z,48.10
2018-04-12T15:01:10.243Z,47.80
2018-04-12T15:03:37.696Z,48.10
2018-04-12T15:06:10.919Z,48.30
2018-04-12T15:08:38.528Z,48.20
2018-04-12T15:11:12.884Z,48.10
2018-04-12T15:13:43.339Z,47.90
2018-04-12T15:16:13.561Z,48.30
2018-04-12T15:18:49.347Z,48.40
2018-04-12T15:21:21.389Z,49.30
2018-04-12T15:23:48.947Z,49.10
2018-04-12T15:26:22.227Z,49.70
2018-04-12T15:28:55.688Z,50.10
2018-04-12T15:31:23.299Z,50.30
2018-04-12T15:33:56.532Z,50.40
2018-04-12T15:36:30.319Z,50.10
2018-04-12T15:38:57.775Z,49.90
2018-04-12T15:41:31.096Z,50.30
2018-04-12T15:43:58.553Z,50.40
2018-04-12T15:46:28.579Z,49.90
2018-04-12T15:48:55.996Z,50.00
2018-04-12T15:51:23.497Z,49.80
2018-04-12T15:53:50.937Z,49.60
2018-04-12T15:56:24.372Z,49.80
2018-04-12T16:01:25.625Z,49.70
2018-04-12T16:03:53.027Z,49.70
2018-04-12T16:06:20.479Z,49.70
2018-04-12T16:08:47.926Z,49.60
2018-04-12T16:11:15.821Z,49.40
2018-04-12T16:13:48.987Z,48.80
2018-04-12T16:16:23.256Z,48.40
2018-04-12T16:18:56.663Z,48.40
2018-04-12T16:21:24.188Z,48.30
2018-04-12T16:23:52.393Z,48.50
2018-04-12T16:26:25.597Z,48.20
2018-04-12T16:28:58.904Z,48.60
2018-04-12T16:31:26.359Z,49.00
2018-04-12T16:33:53.837Z,49.50
2018-04-12T16:36:27.932Z,50.20
2018-04-12T16:38:55.407Z,50.60
2018-04-12T16:41:34.294Z,50.80
2018-04-12T16:44:07.424Z,50.30
2018-04-12T16:46:41.039Z,50.10
2018-04-12T16:49:14.399Z,50.40
2018-04-12T16:51:41.840Z,50.90
2018-04-12T16:54:14.997Z,51.90
2018-04-12T16:56:48.254Z,52.40
2018-04-12T16:59:27.454Z,52.80
2018-04-12T17:01:54.931Z,53.40
2018-04-12T17:04:22.357Z,53.70
2018-04-12T17:06:49.882Z,53.60
2018-04-12T17:09:17.325Z,54.00
2018-04-12T17:11:45.547Z,54.30
2018-04-12T17:14:13.003Z,54.20
2018-04-12T17:16:46.536Z,54.20
2018-04-12T17:19:19.871Z,54.30
2018-04-12T17:21:48.120Z,54.20
2018-04-12T17:24:15.531Z,54.20
2018-04-12T17:26:43.727Z,54.50
2018-04-12T17:29:17.007Z,54.40
2018-04-12T17:31:44.440Z,54.80
2018-04-12T17:34:17.805Z,55.00
2018-04-12T17:36:45.247Z,55.00
2018-04-12T17:39:12.690Z,55.20
2018-04-12T17:41:40.155Z,55.20
2018-04-12T17:44:07.592Z,55.40
2018-04-12T17:46:35.044Z,55.50
2018-04-12T17:49:02.472Z,55.60
2018-04-12T17:51:29.945Z,55.90
2018-04-12T17:54:03.225Z,56.20
2018-04-12T17:56:36.567Z,56.30
2018-04-12T17:59:04.777Z,56.50
2018-04-12T18:01:32.238Z,56.50
2018-04-12T18:04:05.395Z,56.70
2018-04-12T18:06:32.840Z,57.10
2018-04-12T18:09:00.288Z,57.50
2018-04-12T18:11:33.404Z,57.80
2018-04-12T18:14:06.776Z,58.20
2018-04-12T18:16:34.232Z,58.60
2018-04-12T18:19:01.695Z,58.80
2018-04-12T18:21:35.435Z,58.80
2018-04-12T18:24:03.288Z,58.90
2018-04-12T18:26:30.738Z,59.10
2018-04-12T18:29:04.065Z,59.70
2018-04-12T18:31:31.614Z,60.00
2018-04-12T18:34:04.635Z,60.80
2018-04-12T18:36:32.248Z,61.10
2018-04-12T18:39:05.271Z,61.20
2018-04-12T18:41:32.783Z,61.50
2018-04-12T18:44:06.474Z,61.90
2018-04-12T18:46:36.230Z,62.40
2018-04-12T18:49:05.842Z,62.80
2018-04-12T18:51:34.944Z,63.20
2018-04-12T18:54:08.145Z,63.30
2018-04-12T18:56:35.620Z,63.70
2018-04-12T18:59:14.786Z,64.30
2018-04-12T19:01:42.201Z,64.50
2018-04-12T19:04:15.438Z,65.00
2018-04-12T19:06:48.544Z,65.30
2018-04-12T19:09:21.606Z,65.40
2018-04-12T19:12:00.667Z,65.50
2018-04-12T19:14:28.483Z,65.60
2018-04-12T19:16:55.916Z,65.90
2018-04-12T19:19:23.352Z,65.90
2018-04-12T19:21:56.652Z,66.10
2018-04-12T19:24:24.100Z,66.20
2018-04-12T19:27:03.051Z,66.50
2018-04-12T19:29:37.335Z,67.00
2018-04-12T19:32:10.728Z,66.80
2018-04-12T19:34:43.855Z,67.20
2018-04-12T19:37:11.299Z,67.50
2018-04-12T19:39:38.774Z,67.80
2018-04-12T19:42:06.215Z,67.90
2018-04-12T19:44:33.667Z,68.10
2018-04-12T19:47:01.121Z,68.20
2018-04-12T19:49:34.295Z,68.20
2018-04-12T19:52:07.627Z,68.30
2018-04-12T19:54:35.331Z,68.50
2018-04-12T19:57:02.790Z,68.70
2018-04-12T19:59:30.512Z,68.80
2018-04-12T20:02:03.682Z,69.10
2018-04-12T20:04:31.192Z,69.70
2018-04-12T20:07:10.380Z,70.00
2018-04-12T20:09:37.907Z,70.10
2018-04-12T20:12:05.373Z,69.90
2018-04-12T20:14:32.812Z,69.40
2018-04-12T20:17:00.285Z,69.40
2018-04-12T20:19:27.754Z,69.10
2018-04-12T20:21:55.195Z,69.10
2018-04-12T20:24:28.360Z,69.00
2018-04-12T20:26:56.145Z,69.00
2018-04-12T20:29:23.655Z,68.80
2018-04-12T20:31:51.110Z,68.80
2018-04-12T20:34:24.275Z,68.70
2018-04-12T20:36:57.504Z,68.70
2018-04-12T20:39:24.953Z,68.80
2018-04-12T20:41:52.414Z,69.20
2018-04-12T20:44:25.691Z,69.20
2018-04-12T20:46:53.136Z,69.20
2018-04-12T20:49:32.375Z,69.70
2018-04-12T20:51:59.833Z,70.00
2018-04-12T20:54:33.038Z,70.20
2018-04-12T20:57:00.599Z,70.70
2018-04-12T20:59:28.066Z,71.40
2018-04-12T21:01:55.508Z,71.70
2018-04-12T21:04:22.973Z,72.10
2018-04-12T21:06:50.425Z,72.10
2018-04-12T21:09:18.019Z,72.90
2018-04-12T21:11:45.604Z,72.90
2018-04-12T21:14:13.059Z,72.90
2018-04-12T21:16:40.598Z,73.40
2018-04-12T21:19:13.952Z,73.70
2018-04-12T21:21:41.795Z,73.80
2018-04-12T21:24:15.002Z,73.80
2018-04-12T21:26:42.439Z,74.20
2018-04-12T21:29:09.911Z,74.40
2018-04-12T21:31:43.287Z,74.30
2018-04-12T21:34:10.727Z,74.30
2018-04-12T21:36:38.190Z,74.40
2018-04-12T21:39:06.368Z,74.50
2018-04-12T21:41:33.846Z,74.70
2018-04-12T21:44:01.443Z,75.00
2018-04-12T21:46:34.643Z,75.10
2018-04-12T21:49:07.994Z,75.30
2018-04-12T21:51:41.352Z,75.70
2018-04-12T21:54:08.801Z,76.00
2018-04-12T21:56:42.154Z,76.20
2018-04-12T21:59:10.271Z,76.30
2018-04-12T22:01:37.734Z,76.60
2018-04-12T22:04:05.391Z,76.60
2018-04-12T22:06:32.868Z,76.80
2018-04-12T22:09:06.266Z,76.90
2018-04-12T22:11:33.713Z,77.00
2018-04-12T22:14:01.170Z,77.20
2018-04-12T22:16:28.711Z,77.40
2018-04-12T22:18:56.160Z,77.70
2018-04-12T22:21:29.277Z,77.90
2018-04-12T22:24:02.536Z,78.20
2018-04-12T22:26:35.928Z,78.70
2018-04-12T22:29:09.099Z,78.70
2018-04-12T22:31:36.549Z,78.90
2018-04-12T22:34:09.949Z,79.20
2018-04-12T22:36:43.300Z,79.40
2018-04-12T22:39:10.936Z,79.60
2018-04-12T22:41:38.393Z,79.60
2018-04-12T22:44:11.450Z,79.90
2018-04-12T22:46:44.459Z,80.30
2018-04-12T22:49:11.929Z,80.50
2018-04-12T22:51:39.386Z,80.70
2018-04-12T22:54:06.856Z,81.00
2018-04-12T22:56:34.275Z,81.30
2018-04-12T22:59:01.724Z,81.30
2018-04-12T23:01:29.941Z,82.50
2018-04-12T23:03:57.715Z,81.70
2018-04-12T23:06:25.177Z,82.40
2018-04-12T23:08:58.175Z,82.70
2018-04-12T23:11:31.386Z,83.00
2018-04-12T23:14:10.331Z,83.20
2018-04-12T23:16:43.695Z,83.50
2018-04-12T23:19:16.973Z,83.70
2018-04-12T23:21:44.434Z,83.70
2018-04-12T23:24:17.543Z,83.70
2018-04-12T23:26:44.992Z,83.70
2018-04-12T23:29:12.707Z,83.80
2018-04-12T23:31:40.170Z,83.90
2018-04-12T23:34:13.396Z,84.20
2018-04-12T23:36:41.014Z,84.50
2018-04-12T23:39:08.453Z,84.60
2018-04-12T23:41:47.412Z,84.70
2018-04-12T23:44:14.848Z,84.80
2018-04-12T23:46:42.304Z,84.70
2018-04-12T23:49:21.274Z,84.80
2018-04-12T23:51:48.750Z,84.80
2018-04-12T23:54:16.190Z,84.80
2018-04-12T23:56:43.627Z,84.90
2018-04-12T23:59:16.912Z,85.20
